sensor_id;sensor_type;location;lat;lon;timestamp;pressure;altitude;pressure_sealevel;temperature;humidity
37298;BME280;30517;51.932;4.278;2024-01-15T00:02:22;100487.41;;;4.62;70.63
37298;BME280;30517;51.932;4.278;2024-01-15T00:05:03;100501.59;;;4.79;70.12
37298;BME280;30517;51.932;4.278;2024-01-15T00:07:44;100499.72;;;4.72;70.58
37298;BME280;30517;51.932;4.278;2024-01-15T00:10:25;100498.94;;;4.78;70.49
37298;BME280;30517;51.932;4.278;2024-01-15T00:13:06;100507.69;;;4.80;70.42
37298;BME280;30517;51.932;4.278;2024-01-15T00:15:47;100504.03;;;4.69;70.56
37298;BME280;30517;51.932;4.278;2024-01-15T00:18:27;100528.69;;;4.84;70.29
37298;BME280;30517;51.932;4.278;2024-01-15T00:21:08;100501.38;;;4.65;70.47
37298;BME280;30517;51.932;4.278;2024-01-15T00:23:49;100491.09;;;4.78;70.15
37298;BME280;30517;51.932;4.278;2024-01-15T00:26:30;100485.81;;;4.73;70.71
37298;BME280;30517;51.932;4.278;2024-01-15T00:29:11;100488.47;;;4.78;70.51
37298;BME280;30517;51.932;4.278;2024-01-15T00:31:52;100464.00;;;4.71;70.58
37298;BME280;30517;51.932;4.278;2024-01-15T00:34:32;100468.41;;;4.74;70.40
37298;BME280;30517;51.932;4.278;2024-01-15T00:37:13;100463.00;;;4.63;70.48
37298;BME280;30517;51.932;4.278;2024-01-15T00:39:54;100470.09;;;4.70;70.49
37298;BME280;30517;51.932;4.278;2024-01-15T00:42:35;100449.00;;;4.58;70.56
37298;BME280;30517;51.932;4.278;2024-01-15T00:45:16;100477.06;;;4.71;70.33
37298;BME280;30517;51.932;4.278;2024-01-15T00:47:57;100475.25;;;4.67;70.87
37298;BME280;30517;51.932;4.278;2024-01-15T00:50:39;100441.97;;;4.54;70.58
37298;BME280;30517;51.932;4.278;2024-01-15T00:53:20;100457.88;;;4.69;70.45
37298;BME280;30517;51.932;4.278;2024-01-15T00:56:02;100457.88;;;4.68;70.32
37298;BME280;30517;51.932;4.278;2024-01-15T00:58:43;100442.91;;;4.59;70.66
37298;BME280;30517;51.932;4.278;2024-01-15T01:01:24;100435.97;;;4.61;70.71
37298;BME280;30517;51.932;4.278;2024-01-15T01:04:05;100424.69;;;4.62;70.19
37298;BME280;30517;51.932;4.278;2024-01-15T01:06:46;100439.53;;;4.66;70.53
37298;BME280;30517;51.932;4.278;2024-01-15T01:09:26;100432.53;;;4.63;70.36
37298;BME280;30517;51.932;4.278;2024-01-15T01:12:10;100437.81;;;4.65;70.25
37298;BME280;30517;51.932;4.278;2024-01-15T01:14:51;100429.81;;;4.56;70.64
37298;BME280;30517;51.932;4.278;2024-01-15T01:17:32;100443.03;;;4.65;70.52
37298;BME280;30517;51.932;4.278;2024-01-15T01:20:13;100441.13;;;4.55;70.96
37298;BME280;30517;51.932;4.278;2024-01-15T01:22:55;100423.63;;;4.49;70.18
37298;BME280;30517;51.932;4.278;2024-01-15T01:25:36;100440.16;;;4.50;70.48
37298;BME280;30517;51.932;4.278;2024-01-15T01:28:17;100450.66;;;4.53;70.70
37298;BME280;30517;51.932;4.278;2024-01-15T01:30:57;100439.28;;;4.51;70.64
37298;BME280;30517;51.932;4.278;2024-01-15T01:33:39;100451.44;;;4.46;70.84
37298;BME280;30517;51.932;4.278;2024-01-15T01:36:20;100427.75;;;4.36;70.86
37298;BME280;30517;51.932;4.278;2024-01-15T01:39:01;100456.72;;;4.50;71.03
37298;BME280;30517;51.932;4.278;2024-01-15T01:41:42;100439.06;;;4.37;70.71
37298;BME280;30517;51.932;4.278;2024-01-15T01:44:23;100433.19;;;4.49;70.40
37298;BME280;30517;51.932;4.278;2024-01-15T01:47:04;100434.06;;;4.51;70.73
37298;BME280;30517;51.932;4.278;2024-01-15T01:49:46;100440.16;;;4.50;70.85
37298;BME280;30517;51.932;4.278;2024-01-15T01:52:27;100423.00;;;4.65;70.02
37298;BME280;30517;51.932;4.278;2024-01-15T01:55:09;100437.81;;;4.65;70.42
37298;BME280;30517;51.932;4.278;2024-01-15T01:57:51;100426.34;;;4.57;70.12
37298;BME280;30517;51.932;4.278;2024-01-15T02:00:33;100425.31;;;4.46;70.59
37298;BME280;30517;51.932;4.278;2024-01-15T02:03:14;100452.34;;;4.51;70.93
37298;BME280;30517;51.932;4.278;2024-01-15T02:05:56;100453.19;;;4.47;70.90
37298;BME280;30517;51.932;4.278;2024-01-15T02:08:38;100415.53;;;4.32;70.98
37298;BME280;30517;51.932;4.278;2024-01-15T02:11:18;100424.22;;;4.33;70.89
37298;BME280;30517;51.932;4.278;2024-01-15T02:14:00;100459.19;;;4.41;70.77
37298;BME280;30517;51.932;4.278;2024-01-15T02:16:41;100444.34;;;4.38;70.99
37298;BME280;30517;51.932;4.278;2024-01-15T02:19:22;100410.31;;;4.32;70.80
37298;BME280;30517;51.932;4.278;2024-01-15T02:22:03;100426.94;;;4.39;71.13
37298;BME280;30517;51.932;4.278;2024-01-15T02:24:43;100426.94;;;4.39;70.74
37298;BME280;30517;51.932;4.278;2024-01-15T02:27:25;100408.72;;;4.43;70.43
37298;BME280;30517;51.932;4.278;2024-01-15T02:30:07;100399.13;;;4.42;70.39
37298;BME280;30517;51.932;4.278;2024-01-15T02:32:49;100397.28;;;4.37;70.63
37298;BME280;30517;51.932;4.278;2024-01-15T02:35:30;100421.84;;;4.48;70.75
37298;BME280;30517;51.932;4.278;2024-01-15T02:38:10;100403.25;;;4.28;70.59
37298;BME280;30517;51.932;4.278;2024-01-15T02:40:51;100434.19;;;4.58;70.21
37298;BME280;30517;51.932;4.278;2024-01-15T02:43:32;100428.84;;;4.51;70.13
37298;BME280;30517;51.932;4.278;2024-01-15T02:46:13;100414.78;;;4.42;70.30
37298;BME280;30517;51.932;4.278;2024-01-15T02:48:54;100407.69;;;4.34;70.83
37298;BME280;30517;51.932;4.278;2024-01-15T02:51:35;100403.50;;;4.43;70.26
37298;BME280;30517;51.932;4.278;2024-01-15T02:54:16;100422.78;;;4.53;70.97
37298;BME280;30517;51.932;4.278;2024-01-15T02:56:57;100445.47;;;4.56;70.24
37298;BME280;30517;51.932;4.278;2024-01-15T02:59:38;100449.03;;;4.61;70.40
37298;BME280;30517;51.932;4.278;2024-01-15T03:02:18;100435.81;;;4.50;70.01
37298;BME280;30517;51.932;4.278;2024-01-15T03:04:59;100415.66;;;4.41;70.79
37298;BME280;30517;51.932;4.278;2024-01-15T03:07:40;100370.97;;;4.21;70.20
37298;BME280;30517;51.932;4.278;2024-01-15T03:10:21;100399.16;;;4.44;70.27
37298;BME280;30517;51.932;4.278;2024-01-15T03:13:02;100415.69;;;4.44;70.61
37298;BME280;30517;51.932;4.278;2024-01-15T03:15:43;100426.19;;;4.48;70.40
37298;BME280;30517;51.932;4.278;2024-01-15T03:18:24;100397.41;;;4.44;70.08
37298;BME280;30517;51.932;4.278;2024-01-15T03:21:05;100401.69;;;4.39;70.47
37298;BME280;30517;51.932;4.278;2024-01-15T03:23:46;100403.47;;;4.42;70.69
37298;BME280;30517;51.932;4.278;2024-01-15T03:26:27;100410.44;;;4.41;70.50
37298;BME280;30517;51.932;4.278;2024-01-15T03:29:08;100364.78;;;4.18;70.69
37298;BME280;30517;51.932;4.278;2024-01-15T03:31:49;100384.28;;;4.38;70.92
37298;BME280;30517;51.932;4.278;2024-01-15T03:34:30;100392.06;;;4.37;70.49
37298;BME280;30517;51.932;4.278;2024-01-15T03:37:10;100410.38;;;4.38;70.72
37298;BME280;30517;51.932;4.278;2024-01-15T03:39:52;100409.66;;;4.47;70.82
37298;BME280;30517;51.932;4.278;2024-01-15T03:42:33;100367.53;;;4.26;70.53
37298;BME280;30517;51.932;4.278;2024-01-15T03:45:14;100347.34;;;4.15;70.57
37298;BME280;30517;51.932;4.278;2024-01-15T03:47:55;100391.31;;;4.44;70.47
37298;BME280;30517;51.932;4.278;2024-01-15T03:50:36;100369.44;;;4.36;70.72
37298;BME280;30517;51.932;4.278;2024-01-15T03:53:16;100390.34;;;4.37;70.78
37298;BME280;30517;51.932;4.278;2024-01-15T03:55:57;100393.19;;;4.53;70.41
37298;BME280;30517;51.932;4.278;2024-01-15T03:58:38;100378.22;;;4.42;70.38
37298;BME280;30517;51.932;4.278;2024-01-15T04:01:19;100372.13;;;4.42;70.36
37298;BME280;30517;51.932;4.278;2024-01-15T04:04:00;100366.94;;;4.45;70.16
37298;BME280;30517;51.932;4.278;2024-01-15T04:06:41;100365.09;;;4.36;70.89
37298;BME280;30517;51.932;4.278;2024-01-15T04:09:22;100341.50;;;4.30;70.40
37298;BME280;30517;51.932;4.278;2024-01-15T04:12:02;100364.31;;;4.42;70.62
37298;BME280;30517;51.932;4.278;2024-01-15T04:14:43;100379.75;;;4.28;70.29
37298;BME280;30517;51.932;4.278;2024-01-15T04:17:24;100381.53;;;4.31;71.00
37298;BME280;30517;51.932;4.278;2024-01-15T04:20:05;100381.59;;;4.34;70.39
37298;BME280;30517;51.932;4.278;2024-01-15T04:22:46;100387.69;;;4.34;70.77
37298;BME280;30517;51.932;4.278;2024-01-15T04:25:27;100364.00;;;4.22;70.88
37298;BME280;30517;51.932;4.278;2024-01-15T04:28:09;100385.91;;;4.30;70.74
37298;BME280;30517;51.932;4.278;2024-01-15T04:30:49;100365.00;;;4.32;70.39
37298;BME280;30517;51.932;4.278;2024-01-15T04:33:30;100363.47;;;4.44;70.40
37298;BME280;30517;51.932;4.278;2024-01-15T04:36:11;100345.81;;;4.28;70.26
37298;BME280;30517;51.932;4.278;2024-01-15T04:38:52;100332.69;;;4.24;70.69
37298;BME280;30517;51.932;4.278;2024-01-15T04:41:33;100349.41;;;4.35;70.49
37298;BME280;30517;51.932;4.278;2024-01-15T04:44:14;100333.44;;;4.15;71.06
37298;BME280;30517;51.932;4.278;2024-01-15T04:46:55;100316.94;;;4.16;71.22
37298;BME280;30517;51.932;4.278;2024-01-15T04:49:35;100334.38;;;4.20;70.53
37298;BME280;30517;51.932;4.278;2024-01-15T04:52:17;100367.69;;;4.35;70.37
37298;BME280;30517;51.932;4.278;2024-01-15T04:54:57;100359.78;;;4.30;70.66
37298;BME280;30517;51.932;4.278;2024-01-15T04:57:38;100339.69;;;4.25;70.48
37298;BME280;30517;51.932;4.278;2024-01-15T05:00:19;100324.06;;;4.28;70.40
37298;BME280;30517;51.932;4.278;2024-01-15T05:03:00;100317.09;;;4.28;69.95
37298;BME280;30517;51.932;4.278;2024-01-15T05:05:41;100338.81;;;4.24;70.35
37298;BME280;30517;51.932;4.278;2024-01-15T05:08:21;100321.38;;;4.23;70.33
37298;BME280;30517;51.932;4.278;2024-01-15T05:11:02;100329.44;;;4.40;70.03
37298;BME280;30517;51.932;4.278;2024-01-15T05:13:43;100320.81;;;4.44;69.94
37298;BME280;30517;51.932;4.278;2024-01-15T05:16:24;100337.34;;;4.44;69.87
37298;BME280;30517;51.932;4.278;2024-01-15T05:19:07;100347.69;;;4.35;70.54
37298;BME280;30517;51.932;4.278;2024-01-15T05:21:48;100365.91;;;4.34;70.09
37298;BME280;30517;51.932;4.278;2024-01-15T05:24:29;100331.81;;;4.21;70.10
37298;BME280;30517;51.932;4.278;2024-01-15T05:27:10;100359.13;;;4.43;69.63
37298;BME280;30517;51.932;4.278;2024-01-15T05:29:51;100338.72;;;4.21;69.96
37298;BME280;30517;51.932;4.278;2024-01-15T05:32:32;100344.59;;;4.06;71.18
37298;BME280;30517;51.932;4.278;2024-01-15T05:35:12;100338.72;;;4.21;70.47
37298;BME280;30517;51.932;4.278;2024-01-15T05:37:53;100313.75;;;4.37;69.19
37298;BME280;30517;51.932;4.278;2024-01-15T05:40:34;100339.63;;;4.82;67.96
37298;BME280;30517;51.932;4.278;2024-01-15T05:43:15;100328.19;;;4.73;67.82
37298;BME280;30517;51.932;4.278;2024-01-15T05:45:56;100331.59;;;4.69;68.55
37298;BME280;30517;51.932;4.278;2024-01-15T05:48:38;100336.03;;;4.74;68.64
37298;BME280;30517;51.932;4.278;2024-01-15T05:51:19;100320.09;;;4.56;68.68
37298;BME280;30517;51.932;4.278;2024-01-15T05:53:59;100330.22;;;4.33;69.34
37298;BME280;30517;51.932;4.278;2024-01-15T05:56:40;100322.03;;;4.10;70.78
37298;BME280;30517;51.932;4.278;2024-01-15T05:59:21;100336.88;;;4.11;70.96
37298;BME280;30517;51.932;4.278;2024-01-15T06:02:02;100331.28;;;3.89;71.14
37298;BME280;30517;51.932;4.278;2024-01-15T06:04:43;100340.91;;;3.93;70.87
37298;BME280;30517;51.932;4.278;2024-01-15T06:07:24;100338.41;;;3.99;70.86
37298;BME280;30517;51.932;4.278;2024-01-15T06:10:05;100362.97;;;4.11;71.27
37298;BME280;30517;51.932;4.278;2024-01-15T06:12:46;100380.31;;;4.09;71.05
37298;BME280;30517;51.932;4.278;2024-01-15T06:15:27;100341.78;;;3.92;71.22
37298;BME280;30517;51.932;4.278;2024-01-15T06:18:07;100340.09;;;3.94;70.82
37298;BME280;30517;51.932;4.278;2024-01-15T06:20:48;100349.84;;;4.08;70.94
37298;BME280;30517;51.932;4.278;2024-01-15T06:23:29;100336.03;;;4.13;70.77
37298;BME280;30517;51.932;4.278;2024-01-15T06:26:13;100353.53;;;4.19;70.42
37298;BME280;30517;51.932;4.278;2024-01-15T06:28:54;100343.91;;;4.16;70.57
37298;BME280;30517;51.932;4.278;2024-01-15T06:31:35;100341.19;;;4.10;70.52
37298;BME280;30517;51.932;4.278;2024-01-15T06:34:16;100329.75;;;4.02;70.92
37298;BME280;30517;51.932;4.278;2024-01-15T06:36:57;100327.25;;;4.10;70.85
37298;BME280;30517;51.932;4.278;2024-01-15T06:39:37;100291.38;;;3.96;71.10
37298;BME280;30517;51.932;4.278;2024-01-15T06:42:19;100298.59;;;4.11;70.46
37298;BME280;30517;51.932;4.278;2024-01-15T06:45:02;100269.56;;;3.91;70.71
37298;BME280;30517;51.932;4.278;2024-01-15T06:47:43;100286.06;;;3.90;71.03
37298;BME280;30517;51.932;4.278;2024-01-15T06:50:24;100307.25;;;4.09;71.09
37298;BME280;30517;51.932;4.278;2024-01-15T06:53:05;100318.44;;;4.02;70.66
37298;BME280;30517;51.932;4.278;2024-01-15T06:55:46;100330.56;;;3.99;70.77
37298;BME280;30517;51.932;4.278;2024-01-15T06:58:33;100368.09;;;4.08;70.91
37298;BME280;30517;51.932;4.278;2024-01-15T07:01:14;100315.56;;;3.85;71.15
37298;BME280;30517;51.932;4.278;2024-01-15T07:03:54;100328.91;;;4.03;70.70
37298;BME280;30517;51.932;4.278;2024-01-15T07:06:35;100335.91;;;4.06;70.64
37298;BME280;30517;51.932;4.278;2024-01-15T07:09:16;100303.59;;;3.99;71.09
37298;BME280;30517;51.932;4.278;2024-01-15T07:11:57;100313.22;;;4.02;71.15
37298;BME280;30517;51.932;4.278;2024-01-15T07:14:38;100302.69;;;3.95;71.13
37298;BME280;30517;51.932;4.278;2024-01-15T07:17:19;100291.41;;;3.99;70.55
37298;BME280;30517;51.932;4.278;2024-01-15T07:19:59;100269.66;;;3.97;70.07
37298;BME280;30517;51.932;4.278;2024-01-15T07:22:40;100298.47;;;4.04;70.80
37298;BME280;30517;51.932;4.278;2024-01-15T07:25:21;100292.34;;;4.02;70.37
37298;BME280;30517;51.932;4.278;2024-01-15T07:28:02;100304.16;;;3.80;70.68
37298;BME280;30517;51.932;4.278;2024-01-15T07:30:44;100292.78;;;3.74;70.66
37298;BME280;30517;51.932;4.278;2024-01-15T07:33:25;100315.72;;;3.95;70.16
37298;BME280;30517;51.932;4.278;2024-01-15T07:36:06;100285.81;;;3.75;70.84
37298;BME280;30517;51.932;4.278;2024-01-15T07:38:47;100341.81;;;3.95;71.07
37298;BME280;30517;51.932;4.278;2024-01-15T07:41:28;100327.78;;;3.89;71.21
37298;BME280;30517;51.932;4.278;2024-01-15T07:44:09;100323.38;;;3.85;70.76
37298;BME280;30517;51.932;4.278;2024-01-15T07:46:49;100332.34;;;4.01;70.50
37298;BME280;30517;51.932;4.278;2024-01-15T07:49:30;100329.56;;;3.91;71.04
37298;BME280;30517;51.932;4.278;2024-01-15T07:52:11;100342.75;;;3.97;70.54
37298;BME280;30517;51.932;4.278;2024-01-15T07:54:53;100310.38;;;3.88;70.82
37298;BME280;30517;51.932;4.278;2024-01-15T07:57:35;100325.22;;;3.90;70.62
37298;BME280;30517;51.932;4.278;2024-01-15T08:00:19;100311.97;;;3.78;70.74
37298;BME280;30517;51.932;4.278;2024-01-15T08:02:59;100305.19;;;3.89;70.67
37298;BME280;30517;51.932;4.278;2024-01-15T08:05:40;100315.50;;;3.82;71.04
37298;BME280;30517;51.932;4.278;2024-01-15T08:08:21;100273.38;;;3.57;70.71
37298;BME280;30517;51.932;4.278;2024-01-15T08:11:03;100324.50;;;4.01;70.36
37298;BME280;30517;51.932;4.278;2024-01-15T08:13:44;100342.78;;;4.02;70.71
37298;BME280;30517;51.932;4.278;2024-01-15T08:16:25;100339.38;;;4.06;70.32
37298;BME280;30517;51.932;4.278;2024-01-15T08:19:07;100327.91;;;3.96;70.14
37298;BME280;30517;51.932;4.278;2024-01-15T08:21:48;100326.91;;;3.88;70.28
37298;BME280;30517;51.932;4.278;2024-01-15T08:24:29;100348.28;;;3.66;70.33
37298;BME280;30517;51.932;4.278;2024-01-15T08:27:09;100327.75;;;3.36;72.59
37298;BME280;30517;51.932;4.278;2024-01-15T08:29:50;100305.34;;;3.01;72.14
37298;BME280;30517;51.932;4.278;2024-01-15T08:32:31;100342.34;;;3.27;71.79
37298;BME280;30517;51.932;4.278;2024-01-15T08:35:12;100342.00;;;3.10;70.83
37298;BME280;30517;51.932;4.278;2024-01-15T08:37:53;100343.22;;;2.84;71.04
37298;BME280;30517;51.932;4.278;2024-01-15T08:40:33;100344.25;;;2.92;71.56
37298;BME280;30517;51.932;4.278;2024-01-15T08:43:14;100322.94;;;2.69;71.85
37298;BME280;30517;51.932;4.278;2024-01-15T08:45:55;100347.53;;;2.83;72.76
37298;BME280;30517;51.932;4.278;2024-01-15T08:48:36;100312.69;;;2.77;72.76
37298;BME280;30517;51.932;4.278;2024-01-15T08:51:17;100352.41;;;3.09;71.37
37298;BME280;30517;51.932;4.278;2024-01-15T08:54:01;100359.97;;;2.97;72.27
37298;BME280;30517;51.932;4.278;2024-01-15T08:56:42;100362.78;;;3.07;71.99
37298;BME280;30517;51.932;4.278;2024-01-15T08:59:23;100368.81;;;3.03;71.51
37298;BME280;30517;51.932;4.278;2024-01-15T09:02:05;100359.09;;;2.96;73.19
37298;BME280;30517;51.932;4.278;2024-01-15T09:04:47;100361.22;;;2.73;74.80
37298;BME280;30517;51.932;4.278;2024-01-15T09:07:28;100381.44;;;2.85;75.36
37298;BME280;30517;51.932;4.278;2024-01-15T09:10:09;100347.75;;;2.53;75.32
37298;BME280;30517;51.932;4.278;2024-01-15T09:12:50;100396.09;;;2.80;74.83
37298;BME280;30517;51.932;4.278;2024-01-15T09:15:31;100367.47;;;2.81;74.46
37298;BME280;30517;51.932;4.278;2024-01-15T09:18:12;100356.78;;;2.68;73.87
37298;BME280;30517;51.932;4.278;2024-01-15T09:20:53;100377.28;;;2.93;73.35
37298;BME280;30517;51.932;4.278;2024-01-15T09:23:33;100351.63;;;2.71;72.64
37298;BME280;30517;51.932;4.278;2024-01-15T09:26:15;100354.38;;;3.21;72.02
37298;BME280;30517;51.932;4.278;2024-01-15T09:28:57;100347.25;;;3.58;70.15
37298;BME280;30517;51.932;4.278;2024-01-15T09:31:38;100372.03;;;3.83;69.68
37298;BME280;30517;51.932;4.278;2024-01-15T09:34:19;100359.00;;;3.83;69.26
37298;BME280;30517;51.932;4.278;2024-01-15T09:37:00;100363.47;;;3.90;69.32
37298;BME280;30517;51.932;4.278;2024-01-15T09:39:41;100361.59;;;3.83;69.54
37298;BME280;30517;51.932;4.278;2024-01-15T09:42:23;100371.25;;;3.87;69.61
37298;BME280;30517;51.932;4.278;2024-01-15T09:45:05;100351.13;;;3.78;69.39
37298;BME280;30517;51.932;4.278;2024-01-15T09:47:46;100361.53;;;3.78;69.71
37298;BME280;30517;51.932;4.278;2024-01-15T09:50:27;100353.53;;;3.67;70.09
37298;BME280;30517;51.932;4.278;2024-01-15T09:53:09;100363.44;;;3.87;69.74
37298;BME280;30517;51.932;4.278;2024-01-15T09:55:50;100357.38;;;3.89;69.67
37298;BME280;30517;51.932;4.278;2024-01-15T09:58:31;100361.66;;;3.86;69.76
37298;BME280;30517;51.932;4.278;2024-01-15T10:01:12;100395.56;;;3.84;69.74
37298;BME280;30517;51.932;4.278;2024-01-15T10:03:55;100413.84;;;3.86;70.03
37298;BME280;30517;51.932;4.278;2024-01-15T10:06:37;100393.00;;;3.87;69.51
37298;BME280;30517;51.932;4.278;2024-01-15T10:09:19;100374.69;;;3.84;69.40
37298;BME280;30517;51.932;4.278;2024-01-15T10:12:01;100397.50;;;3.94;69.31
37298;BME280;30517;51.932;4.278;2024-01-15T10:14:42;100378.91;;;3.76;70.21
37298;BME280;30517;51.932;4.278;2024-01-15T10:17:24;100392.09;;;3.84;70.65
37298;BME280;30517;51.932;4.278;2024-01-15T10:20:09;100393.63;;;3.74;70.81
37298;BME280;30517;51.932;4.278;2024-01-15T10:22:51;100378.94;;;3.81;70.36
37298;BME280;30517;51.932;4.278;2024-01-15T10:25:31;100394.56;;;3.77;70.98
37298;BME280;30517;51.932;4.278;2024-01-15T10:28:13;100403.44;;;3.89;70.94
37298;BME280;30517;51.932;4.278;2024-01-15T10:30:56;100403.06;;;3.66;71.21
37298;BME280;30517;51.932;4.278;2024-01-15T10:33:37;100393.69;;;3.77;71.32
37298;BME280;30517;51.932;4.278;2024-01-15T10:36:18;100383.88;;;3.64;71.08
37298;BME280;30517;51.932;4.278;2024-01-15T10:38:59;100373.63;;;3.74;71.44
37298;BME280;30517;51.932;4.278;2024-01-15T10:41:40;100378.03;;;3.77;71.37
37298;BME280;30517;51.932;4.278;2024-01-15T10:44:20;100385.97;;;3.83;71.48
37298;BME280;30517;51.932;4.278;2024-01-15T10:47:01;100409.38;;;3.80;71.58
37298;BME280;30517;51.932;4.278;2024-01-15T10:49:45;100400.38;;;3.63;72.39
37298;BME280;30517;51.932;4.278;2024-01-15T10:52:27;100422.38;;;3.75;71.77
37298;BME280;30517;51.932;4.278;2024-01-15T10:55:09;100442.47;;;3.81;71.93
37298;BME280;30517;51.932;4.278;2024-01-15T10:57:51;100402.38;;;3.76;71.96
37298;BME280;30517;51.932;4.278;2024-01-15T11:00:34;100402.28;;;3.71;72.07
37298;BME280;30517;51.932;4.278;2024-01-15T11:03:18;100402.47;;;3.82;71.74
37298;BME280;30517;51.932;4.278;2024-01-15T11:05:59;100408.56;;;3.81;71.55
37298;BME280;30517;51.932;4.278;2024-01-15T11:08:40;100405.94;;;3.81;71.44
37298;BME280;30517;51.932;4.278;2024-01-15T11:11:22;100388.31;;;3.68;71.61
37298;BME280;30517;51.932;4.278;2024-01-15T11:14:03;100383.91;;;3.65;72.01
37298;BME280;30517;51.932;4.278;2024-01-15T11:16:55;100397.97;;;3.75;71.83
37298;BME280;30517;51.932;4.278;2024-01-15T11:25:18;100404.16;;;3.80;72.43
37298;BME280;30517;51.932;4.278;2024-01-15T11:27:59;100424.94;;;3.74;72.43
37298;BME280;30517;51.932;4.278;2024-01-15T11:30:40;100394.50;;;3.74;71.70
37298;BME280;30517;51.932;4.278;2024-01-15T11:33:33;100412.81;;;3.77;72.41
37298;BME280;30517;51.932;4.278;2024-01-15T11:36:14;100415.41;;;3.76;72.42
37298;BME280;30517;51.932;4.278;2024-01-15T11:38:55;100424.84;;;3.69;72.17
37298;BME280;30517;51.932;4.278;2024-01-15T11:41:36;100422.94;;;3.61;72.43
37298;BME280;30517;51.932;4.278;2024-01-15T11:44:17;100409.00;;;3.59;72.48
37298;BME280;30517;51.932;4.278;2024-01-15T11:47:03;100431.03;;;3.74;72.33
37298;BME280;30517;51.932;4.278;2024-01-15T11:49:58;100447.66;;;3.80;72.61
37298;BME280;30517;51.932;4.278;2024-01-15T11:52:51;100438.69;;;3.67;72.38
37298;BME280;30517;51.932;4.278;2024-01-15T11:55:41;100466.00;;;3.84;72.62
37298;BME280;30517;51.932;4.278;2024-01-15T11:58:25;100393.41;;;3.62;71.65
37298;BME280;30517;51.932;4.278;2024-01-15T12:01:06;100424.03;;;3.72;72.16
37298;BME280;30517;51.932;4.278;2024-01-15T12:03:47;100415.38;;;3.74;71.94
37298;BME280;30517;51.932;4.278;2024-01-15T12:06:29;100431.69;;;3.63;72.73
37298;BME280;30517;51.932;4.278;2024-01-15T12:09:10;100417.78;;;3.64;72.24
37298;BME280;30517;51.932;4.278;2024-01-15T12:11:55;100451.06;;;3.75;72.57
37298;BME280;30517;51.932;4.278;2024-01-15T12:14:40;100414.97;;;3.51;72.49
37298;BME280;30517;51.932;4.278;2024-01-15T12:17:20;100470.31;;;3.38;73.01
37298;BME280;30517;51.932;4.278;2024-01-15T12:20:04;100455.03;;;3.14;73.30
37298;BME280;30517;51.932;4.278;2024-01-15T12:22:45;100423.47;;;3.00;71.37
37298;BME280;30517;51.932;4.278;2024-01-15T12:25:30;100396.91;;;2.77;71.39
37298;BME280;30517;51.932;4.278;2024-01-15T12:28:11;100457.50;;;3.08;70.79
37298;BME280;30517;51.932;4.278;2024-01-15T12:30:52;100451.47;;;3.10;71.16
37298;BME280;30517;51.932;4.278;2024-01-15T12:33:33;100451.63;;;3.18;70.09
37298;BME280;30517;51.932;4.278;2024-01-15T12:36:14;100456.59;;;3.07;68.78
37298;BME280;30517;51.932;4.278;2024-01-15T12:38:59;100454.00;;;3.48;68.56
37298;BME280;30517;51.932;4.278;2024-01-15T12:41:40;100443.97;;;3.68;68.22
37298;BME280;30517;51.932;4.278;2024-01-15T12:44:21;100450.16;;;3.73;68.64
37298;BME280;30517;51.932;4.278;2024-01-15T12:47:02;100465.81;;;3.75;69.45
37298;BME280;30517;51.932;4.278;2024-01-15T12:49:46;100473.50;;;3.67;69.64
37298;BME280;30517;51.932;4.278;2024-01-15T12:52:30;100472.66;;;3.70;69.95
37298;BME280;30517;51.932;4.278;2024-01-15T12:55:11;100475.44;;;3.77;69.91
37298;BME280;30517;51.932;4.278;2024-01-15T12:57:52;100464.28;;;3.85;69.88
37298;BME280;30517;51.932;4.278;2024-01-15T13:00:34;100454.72;;;3.85;69.80
37298;BME280;30517;51.932;4.278;2024-01-15T13:03:15;100494.88;;;3.93;69.80
37298;BME280;30517;51.932;4.278;2024-01-15T13:05:56;100481.66;;;3.84;69.79
37298;BME280;30517;51.932;4.278;2024-01-15T13:08:37;100507.75;;;3.86;70.50
37298;BME280;30517;51.932;4.278;2024-01-15T13:11:18;100480.66;;;3.77;70.32
37298;BME280;30517;51.932;4.278;2024-01-15T13:13:59;100473.59;;;3.72;70.43
37298;BME280;30517;51.932;4.278;2024-01-15T13:16:43;100494.59;;;3.78;70.57
37298;BME280;30517;51.932;4.278;2024-01-15T13:19:24;100495.47;;;3.79;70.51
37298;BME280;30517;51.932;4.278;2024-01-15T13:22:04;100506.78;;;3.79;70.78
37298;BME280;30517;51.932;4.278;2024-01-15T13:24:47;100487.59;;;3.75;70.90
37298;BME280;30517;51.932;4.278;2024-01-15T13:27:28;100490.16;;;3.74;71.00
37298;BME280;30517;51.932;4.278;2024-01-15T13:30:10;100457.44;;;3.46;70.73
37298;BME280;30517;51.932;4.278;2024-01-15T13:32:52;100519.94;;;3.84;71.50
37298;BME280;30517;51.932;4.278;2024-01-15T13:35:34;100524.25;;;3.83;70.90
37298;BME280;30517;51.932;4.278;2024-01-15T13:38:16;100514.63;;;3.81;70.77
37298;BME280;30517;51.932;4.278;2024-01-15T13:40:57;100493.63;;;3.74;71.25
37298;BME280;30517;51.932;4.278;2024-01-15T13:43:38;100517.31;;;3.85;71.28
37298;BME280;30517;51.932;4.278;2024-01-15T13:46:19;100511.22;;;3.85;71.43
37298;BME280;30517;51.932;4.278;2024-01-15T13:49:01;100493.69;;;3.76;71.05
37298;BME280;30517;51.932;4.278;2024-01-15T13:51:42;100498.78;;;3.71;71.56
37298;BME280;30517;51.932;4.278;2024-01-15T13:54:23;100496.34;;;3.79;71.45
37298;BME280;30517;51.932;4.278;2024-01-15T13:57:04;100487.50;;;3.71;71.39
37298;BME280;30517;51.932;4.278;2024-01-15T13:59:45;100502.06;;;3.61;71.36
37298;BME280;30517;51.932;4.278;2024-01-15T14:02:26;100505.81;;;3.74;71.24
37298;BME280;30517;51.932;4.278;2024-01-15T14:05:07;100499.72;;;3.75;71.14
37298;BME280;30517;51.932;4.278;2024-01-15T14:07:48;100537.22;;;3.79;71.16
37298;BME280;30517;51.932;4.278;2024-01-15T14:10:29;100497.59;;;3.54;71.29
37298;BME280;30517;51.932;4.278;2024-01-15T14:13:10;100569.44;;;3.82;71.56
37298;BME280;30517;51.932;4.278;2024-01-15T14:15:51;100550.97;;;3.71;71.42
37298;BME280;30517;51.932;4.278;2024-01-15T14:18:32;100538.84;;;3.75;70.66
37298;BME280;30517;51.932;4.278;2024-01-15T14:21:13;100555.19;;;3.65;71.09